To NAV CANADA Home Page Login to a new session Search on AWWS site Feedback and Comments Disclaimer Vers la page française équivalente Tips FAQ What's new on the site To the Forecasts and Observations / NOTAM section To "File a Flight Plan" website Publications and other links Update of the User's profile FIC Telephone Numbers My Weather Data Folder Route Weather Data Regional Weather Data Local Weather Data To the Forecasts and Observations / NOTAM section
Request Generated 03/06/2015 at 21:30:54 UTC . Weather information available at that time is displayed.

METAR/TAF

NAIN/NL    

METAR CYDP 062100Z 29021G30KT 15SM SKC M23/M31 A2975 RMK SLP077=
METAR CYDP 062000Z 28023G31KT 15SM SKC M23/M30 A2973 RMK SLP069=
METAR CYDP 061900Z 28025G31KT 15SM SKC M23/M30 A2972 RMK SLP066=

TAF CYDP 061938Z 0620/0624 28020G30KT P6SM FEW220
BECMG 0621/0623 28015KT
RMK NXT FCST WILL BE ISSUED AT 071045Z=
Your time UTC time
Weather data provided by Environment Canada and NAV CANADA